createdAt,value
2023-09-17T00:01:04.721Z,56.25
2023-09-17T00:04:04.779Z,55.79
2023-09-17T00:06:05.132Z,55.42
2023-09-17T00:09:04.833Z,55.31
2023-09-17T00:11:04.758Z,54.58
2023-09-17T00:14:05.320Z,53.86
2023-09-17T00:17:04.944Z,53.74
2023-09-17T00:20:04.896Z,52.67
2023-09-17T00:22:05.311Z,52.51
2023-09-17T00:25:04.992Z,52.73
2023-09-17T00:27:04.791Z,53.28
2023-09-17T00:30:05.126Z,53.23
2023-09-17T00:32:05.631Z,53.12
2023-09-17T00:35:04.725Z,54.09
2023-09-17T00:38:05.261Z,54.01
2023-09-17T00:41:04.690Z,54.43
2023-09-17T00:43:04.801Z,54.73
2023-09-17T00:45:05.432Z,54.75
2023-09-17T00:48:04.990Z,54.35
2023-09-17T00:51:04.695Z,54.59
2023-09-17T00:53:05.349Z,54.52
2023-09-17T00:56:05.571Z,53.83
2023-09-17T00:59:04.902Z,54.63
2023-09-17T01:02:04.753Z,55.19
2023-09-17T01:04:04.878Z,54.59
2023-09-17T01:07:04.746Z,54.87
2023-09-17T01:09:04.754Z,55.06
2023-09-17T01:12:04.757Z,54.8
2023-09-17T01:14:04.909Z,54.85
2023-09-17T01:17:04.757Z,55.07
2023-09-17T01:19:05.375Z,55.04
2023-09-17T01:22:04.718Z,54.84
2023-09-17T01:24:05.548Z,55.39
2023-09-17T01:27:04.744Z,55.56
2023-09-17T01:30:04.698Z,55.85
2023-09-17T01:32:05.669Z,55.56
2023-09-17T01:35:04.737Z,55.96
2023-09-17T01:38:05.706Z,55.74
2023-09-17T01:41:04.713Z,55.96
2023-09-17T01:43:04.717Z,55.96
2023-09-17T01:45:04.743Z,56.18
2023-09-17T01:47:05.517Z,55.8
2023-09-17T01:50:05.309Z,55.51
2023-09-17T01:53:04.760Z,55.87
2023-09-17T01:56:04.741Z,55.61
2023-09-17T01:59:05.665Z,54.55
2023-09-17T02:02:05.469Z,54.47
2023-09-17T02:05:04.779Z,54.57
2023-09-17T02:07:04.757Z,54.07
2023-09-17T02:09:04.771Z,54.18
2023-09-17T02:11:05.353Z,53.73
2023-09-17T02:14:04.830Z,53.83
2023-09-17T02:17:04.744Z,53.42
2023-09-17T02:19:04.770Z,53
2023-09-17T02:21:05.075Z,52.47
2023-09-17T02:24:04.878Z,52.23
2023-09-17T02:27:05.241Z,53.4
2023-09-17T02:30:05.596Z,53.72
2023-09-17T02:33:04.913Z,54.22
2023-09-17T02:36:05.205Z,53.69
2023-09-17T02:39:04.799Z,53.35
2023-09-17T02:41:05.345Z,53.02
2023-09-17T02:44:05.053Z,52.48
2023-09-17T02:48:04.762Z,52.21
2023-09-17T02:50:04.906Z,52.31
2023-09-17T02:53:04.768Z,51.76
2023-09-17T02:55:05.377Z,52.15
2023-09-17T02:58:04.743Z,51.96
2023-09-17T03:00:05.265Z,51.87
2023-09-17T03:03:04.795Z,52.06
2023-09-17T03:06:03.848Z,52.49
2023-09-17T03:08:05.212Z,53.37
2023-09-17T03:11:04.779Z,52.89
2023-09-17T03:13:05.632Z,53.81
2023-09-17T03:16:04.866Z,54.24
2023-09-17T03:19:04.819Z,54.52
2023-09-17T03:22:04.784Z,54.19
2023-09-17T03:25:05.434Z,53.81
2023-09-17T03:28:04.749Z,53.42
2023-09-17T03:30:04.776Z,53.6
2023-09-17T03:32:05.627Z,54.1
2023-09-17T03:35:04.791Z,53.41
2023-09-17T03:37:04.802Z,53.63
2023-09-17T03:40:05.033Z,53.48
2023-09-17T03:43:04.762Z,53
2023-09-17T03:45:04.783Z,53.19
2023-09-17T03:48:04.846Z,52.93
2023-09-17T03:51:04.775Z,53.39
2023-09-17T03:54:04.792Z,53.61
2023-09-17T03:57:04.753Z,53.16
2023-09-17T03:59:04.798Z,53.39
2023-09-17T04:01:05.139Z,53.72
2023-09-17T04:04:04.804Z,53.72
2023-09-17T04:07:04.865Z,53.84
2023-09-17T04:10:04.779Z,54.02
2023-09-17T04:12:04.948Z,53.53
2023-09-17T04:14:05.660Z,53.81
2023-09-17T04:17:04.823Z,52.92
2023-09-17T04:19:05.393Z,52.8
2023-09-17T04:22:04.764Z,52.84
2023-09-17T04:24:04.792Z,52.22
2023-09-17T04:26:05.506Z,52.57
2023-09-17T04:28:05.551Z,53
2023-09-17T04:31:05.484Z,53.19
2023-09-17T04:36:12.020Z,52.54
2023-09-17T04:39:04.779Z,52.87
2023-09-17T04:42:04.775Z,53.35
2023-09-17T04:44:04.869Z,53.62
2023-09-17T04:47:04.790Z,53.67
2023-09-17T04:50:04.752Z,53.95
2023-09-17T04:52:04.802Z,53.78
2023-09-17T04:55:04.798Z,53.64
2023-09-17T04:58:04.778Z,53.79
2023-09-17T05:00:04.743Z,53.12
2023-09-17T05:02:05.489Z,53.12
2023-09-17T05:05:05.365Z,53.27
2023-09-17T05:08:05.071Z,53.51
2023-09-17T05:11:05.647Z,53.46
2023-09-17T05:14:04.855Z,53.53
2023-09-17T05:17:05.500Z,53.01
2023-09-17T05:20:05.654Z,52.85
2023-09-17T05:23:05.651Z,53.08
2023-09-17T05:26:04.838Z,53.43
2023-09-17T05:28:04.842Z,53.69
2023-09-17T05:30:04.897Z,53.45
2023-09-17T05:32:05.593Z,53.39
2023-09-17T05:35:05.347Z,53.49
2023-09-17T05:38:04.829Z,53.35
2023-09-17T05:40:04.925Z,53.54
2023-09-17T05:43:05.264Z,54.49
2023-09-17T05:46:05.043Z,54.34
2023-09-17T05:48:05.281Z,54.93
2023-09-17T05:51:04.782Z,54.24
2023-09-17T05:54:05.178Z,55.09
2023-09-17T05:57:04.770Z,55.25
2023-09-17T05:59:04.810Z,54.6
2023-09-17T06:02:04.828Z,54.31
2023-09-17T06:04:04.835Z,54.85
2023-09-17T06:07:04.845Z,54.15
2023-09-17T06:10:04.876Z,53.95
2023-09-17T06:13:04.802Z,53.25
2023-09-17T06:15:04.824Z,53.7
2023-09-17T06:18:04.889Z,54.39
2023-09-17T06:20:04.927Z,53.65
2023-09-17T06:22:05.566Z,53.86
2023-09-17T06:25:05.530Z,53.97
2023-09-17T06:28:04.856Z,54.05
2023-09-17T06:30:04.953Z,54.42
2023-09-17T06:32:05.290Z,54.13
2023-09-17T06:35:04.806Z,53.98
2023-09-17T06:37:04.813Z,53.37
2023-09-17T06:39:05.585Z,53.24
2023-09-17T06:42:04.979Z,53.17
2023-09-17T06:44:05.283Z,54.03
2023-09-17T06:46:05.746Z,53.74
2023-09-17T06:49:04.838Z,53.79
2023-09-17T06:51:05.687Z,53.65
2023-09-17T06:54:04.859Z,53.56
2023-09-17T06:57:04.835Z,54.83
2023-09-17T07:00:05.616Z,54.26
2023-09-17T07:03:04.875Z,53.79
2023-09-17T07:05:05.208Z,53.34
2023-09-17T07:08:05.173Z,54.1
2023-09-17T07:10:05.747Z,53.69
2023-09-17T07:13:04.793Z,54.33
2023-09-17T07:15:04.824Z,54.34
2023-09-17T07:17:05.572Z,54.78
2023-09-17T07:20:04.856Z,54.52
2023-09-17T07:22:04.814Z,55.02
2023-09-17T07:24:05.762Z,55.19
2023-09-17T07:27:04.872Z,55.58
2023-09-17T07:30:05.271Z,55.77
2023-09-17T07:32:05.371Z,55.83
2023-09-17T07:34:05.450Z,55.36
2023-09-17T07:37:04.815Z,55.12
2023-09-17T07:39:04.830Z,54.69
2023-09-17T07:42:04.863Z,56.44
2023-09-17T07:44:05.551Z,55.27
2023-09-17T07:47:05.361Z,53.93
2023-09-17T07:50:05.485Z,56.32
2023-09-17T07:53:04.850Z,54.2
2023-09-17T07:56:04.962Z,53.74
2023-09-17T07:59:04.991Z,54.37
2023-09-17T08:01:05.274Z,54.1
2023-09-17T08:04:04.901Z,53.32
2023-09-17T08:06:04.854Z,52.68
2023-09-17T08:08:05.467Z,54.04
2023-09-17T08:11:05.123Z,52.02
2023-09-17T08:14:05.519Z,52.6
2023-09-17T08:17:05.042Z,53.53
2023-09-17T08:20:04.909Z,54.46
2023-09-17T08:22:04.854Z,53.5
2023-09-17T08:25:04.860Z,54.24
2023-09-17T08:27:05.286Z,53.43
2023-09-17T08:30:04.906Z,53.01
2023-09-17T08:32:05.444Z,53.13
2023-09-17T08:35:04.894Z,51.95
2023-09-17T08:37:04.865Z,51.8
2023-09-17T08:40:04.851Z,53.51
2023-09-17T08:42:06.656Z,52.81
2023-09-17T08:45:05.099Z,52.77
2023-09-17T08:48:05.559Z,51.72
2023-09-17T08:51:05.308Z,51.72
2023-09-17T08:54:04.869Z,52.23
2023-09-17T08:56:05.294Z,53.15
2023-09-17T08:58:05.604Z,55.18
2023-09-17T09:01:04.848Z,53.7
2023-09-17T09:04:04.909Z,52.19
2023-09-17T09:06:04.865Z,53.51
2023-09-17T09:08:05.297Z,52.25
2023-09-17T09:11:05.337Z,54.61
2023-09-17T09:14:05.447Z,54.15
2023-09-17T09:17:05.664Z,55.66
2023-09-17T09:20:05.138Z,52.27
2023-09-17T09:23:04.883Z,52.34
2023-09-17T09:25:04.880Z,51.78
2023-09-17T09:28:06.629Z,50.98
2023-09-17T09:30:06.958Z,52.15
2023-09-17T09:33:06.728Z,52.21
2023-09-17T09:35:06.764Z,52.21
2023-09-17T09:38:07.557Z,52.5
2023-09-17T09:41:07.433Z,51.86
2023-09-17T09:44:06.680Z,53.75
2023-09-17T09:47:06.711Z,52.11
2023-09-17T09:49:06.968Z,51.7
2023-09-17T09:52:06.679Z,52
2023-09-17T09:55:07.185Z,52.27
2023-09-17T09:58:07.067Z,50.32
2023-09-17T10:01:06.657Z,50.66
2023-09-17T10:03:07.239Z,50.39
2023-09-17T10:07:06.853Z,52.12
2023-09-17T10:09:07.163Z,49.93
2023-09-17T10:12:07.027Z,52.67
2023-09-17T10:15:06.729Z,49.9
2023-09-17T10:18:06.797Z,49.25
2023-09-17T10:21:06.899Z,50.76
2023-09-17T10:23:07.252Z,49.7
2023-09-17T10:27:05.755Z,50.13
2023-09-17T10:29:06.674Z,48.85
2023-09-17T10:31:07.453Z,49.85
2023-09-17T10:34:07.029Z,49.77
2023-09-17T10:36:06.782Z,48.65
2023-09-17T10:39:06.717Z,48.9
2023-09-17T10:41:07.606Z,48.39
2023-09-17T10:44:06.965Z,49.35
2023-09-17T10:47:07.374Z,48.12
2023-09-17T10:49:07.608Z,48.36
2023-09-17T10:52:07.618Z,48.3
2023-09-17T10:55:06.731Z,47.39
2023-09-17T10:58:07.702Z,47.93
2023-09-17T11:01:06.716Z,46.99
2023-09-17T11:03:06.845Z,46.86
2023-09-17T11:06:07.604Z,46.98
2023-09-17T11:09:07.292Z,46.98
2023-09-17T11:12:06.669Z,46.21
2023-09-17T11:14:06.990Z,46.88
2023-09-17T11:16:07.330Z,47.29
2023-09-17T11:19:07.299Z,46.78
2023-09-17T11:22:06.680Z,46.56
2023-09-17T11:24:08.425Z,46.76
2023-09-17T11:27:06.711Z,45.62
2023-09-17T11:30:07.295Z,45.93
2023-09-17T11:33:07.356Z,45.5
2023-09-17T11:36:07.429Z,45.4
2023-09-17T11:39:06.705Z,45.42
2023-09-17T11:41:07.324Z,45.31
2023-09-17T11:44:07.281Z,44.92
2023-09-17T11:46:07.351Z,45.37
2023-09-17T11:49:07.135Z,44.78
2023-09-17T11:52:06.784Z,44.6
2023-09-17T11:55:07.322Z,44.55
2023-09-17T11:58:06.712Z,45.12
2023-09-17T12:01:06.760Z,44.47
2023-09-17T12:04:06.742Z,44.33
2023-09-17T12:06:07.303Z,43.79
2023-09-17T12:09:06.749Z,44.51
2023-09-17T12:12:06.692Z,44.15
2023-09-17T12:14:07.532Z,44.08
2023-09-17T12:17:06.860Z,44.26
2023-09-17T12:19:17.508Z,43.61
2023-09-17T12:22:06.734Z,43.72
2023-09-17T12:24:07.690Z,43.69
2023-09-17T12:27:07.699Z,43.5
2023-09-17T12:30:06.717Z,43.36
2023-09-17T12:32:07.017Z,43.15
2023-09-17T12:34:06.777Z,42.59
2023-09-17T12:37:06.743Z,42.29
2023-09-17T12:40:06.992Z,42.66
2023-09-17T12:43:11.728Z,41.57
2023-09-17T12:45:06.723Z,41.61
2023-09-17T12:47:06.761Z,41.67
2023-09-17T12:50:07.067Z,41.92
2023-09-17T12:53:06.782Z,41.91
2023-09-17T12:55:07.048Z,40.77
2023-09-17T12:58:06.720Z,40.35
2023-09-17T13:00:07.151Z,40.44
2023-09-17T13:03:07.759Z,40.76
2023-09-17T13:06:07.401Z,40.72
2023-09-17T13:09:07.268Z,40.49
2023-09-17T13:12:06.754Z,40.04
2023-09-17T13:15:06.766Z,40.61
2023-09-17T13:17:07.260Z,39.41
2023-09-17T13:20:06.761Z,39.5
2023-09-17T13:22:07.083Z,39.13
2023-09-17T13:25:07.131Z,39.8
2023-09-17T13:27:06.777Z,40.12
2023-09-17T13:30:06.798Z,39.82
2023-09-17T13:33:06.815Z,38.7
2023-09-17T13:36:06.727Z,39.09
2023-09-17T13:38:07.347Z,38.83
2023-09-17T13:41:06.775Z,39.31
2023-09-17T13:43:07.533Z,38.93
2023-09-17T13:46:06.755Z,37.79
2023-09-17T13:48:07.358Z,38.3
2023-09-17T13:51:07.002Z,38.32
2023-09-17T13:54:06.985Z,37.83
2023-09-17T13:56:07.599Z,37.35
2023-09-17T13:58:07.683Z,37.3
2023-09-17T14:01:07.624Z,36.94
2023-09-17T14:04:07.053Z,37.45
2023-09-17T14:06:06.782Z,37.26
2023-09-17T14:08:06.789Z,36.99
2023-09-17T14:10:06.926Z,37.13
2023-09-17T14:13:06.961Z,37.17
2023-09-17T14:15:07.510Z,36.02
2023-09-17T14:18:07.204Z,34.71
2023-09-17T14:21:07.633Z,35.38
2023-09-17T14:24:06.790Z,35.4
2023-09-17T14:26:07.052Z,35.15
2023-09-17T14:29:06.843Z,33.55
2023-09-17T14:31:06.795Z,33.01
2023-09-17T14:34:06.812Z,34.74
2023-09-17T14:36:06.770Z,34.89
2023-09-17T14:38:07.406Z,35.84
2023-09-17T14:41:07.289Z,35.21
2023-09-17T14:44:06.877Z,35.48
2023-09-17T14:47:07.095Z,35.05
2023-09-17T14:50:07.542Z,35.46
2023-09-17T14:53:06.810Z,33.29
2023-09-17T14:55:06.806Z,33.21
2023-09-17T14:57:07.144Z,34.76
2023-09-17T14:59:07.318Z,35.21
2023-09-17T15:02:06.840Z,34.84
2023-09-17T15:04:06.874Z,35.44
2023-09-17T15:06:07.293Z,34.73
2023-09-17T15:09:06.836Z,35.04
2023-09-17T15:12:07.271Z,34.85
2023-09-17T15:15:06.789Z,34.98
2023-09-17T15:17:06.943Z,33.65
2023-09-17T15:19:07.443Z,33.73
2023-09-17T15:22:06.779Z,34.21
2023-09-17T15:24:06.797Z,34.03
2023-09-17T15:26:07.454Z,34.68
2023-09-17T15:29:06.815Z,32.88
2023-09-17T15:32:06.910Z,34.08
2023-09-17T15:35:06.920Z,34.96
2023-09-17T15:37:06.787Z,34.06
2023-09-17T15:39:06.911Z,35.08
2023-09-17T15:42:07.058Z,35.34
2023-09-17T15:44:07.077Z,33.79
2023-09-17T15:47:06.981Z,33.59
2023-09-17T15:49:07.614Z,34.15
2023-09-17T15:52:06.890Z,33.6
2023-09-17T15:55:06.961Z,34.58
2023-09-17T15:57:07.228Z,34.92
2023-09-17T15:59:07.266Z,35.03
2023-09-17T16:01:07.554Z,35.08
2023-09-17T16:04:06.866Z,35.71
2023-09-17T16:06:07.327Z,35.76
2023-09-17T16:09:07.686Z,36.07
2023-09-17T16:12:06.801Z,36.38
2023-09-17T16:15:06.870Z,36.34
2023-09-17T16:18:06.814Z,36.15
2023-09-17T16:20:07.065Z,36.72
2023-09-17T16:23:07.061Z,36.87
2023-09-17T16:26:06.887Z,36.9
2023-09-17T16:28:07.236Z,36.79
2023-09-17T16:30:07.734Z,36.79
2023-09-17T16:33:07.202Z,37.3
2023-09-17T16:35:07.325Z,37.67
2023-09-17T16:37:07.647Z,37.63
2023-09-17T16:40:06.803Z,37.95
2023-09-17T16:42:07.440Z,38.66
2023-09-17T16:45:07.207Z,38.4
2023-09-17T16:47:07.606Z,38.75
2023-09-17T16:50:06.891Z,38.59
2023-09-17T16:53:07.352Z,38.35
2023-09-17T16:56:08.233Z,38.86
2023-09-17T16:59:07.408Z,39.04
2023-09-17T17:02:06.806Z,39.22
2023-09-17T17:04:06.970Z,39.26
2023-09-17T17:06:07.070Z,39.52
2023-09-17T17:09:06.888Z,39.3
2023-09-17T17:11:06.964Z,39.45
2023-09-17T17:14:06.803Z,38.61
2023-09-17T17:16:06.878Z,39.01
2023-09-17T17:18:07.581Z,38.93
2023-09-17T17:21:07.583Z,38.52
2023-09-17T17:24:06.852Z,38.71
2023-09-17T17:27:07.274Z,38.62
2023-09-17T17:30:07.254Z,39.37
2023-09-17T17:33:07.003Z,39.07
2023-09-17T17:35:07.126Z,38.99
2023-09-17T17:38:05.261Z,38.79
2023-09-17T17:40:06.862Z,39
2023-09-17T17:42:07.749Z,39.15
2023-09-17T17:45:07.075Z,39.32
2023-09-17T17:47:07.443Z,39.48
2023-09-17T17:50:06.930Z,39.47
2023-09-17T17:53:07.045Z,39.45
2023-09-17T17:56:07.437Z,40.22
2023-09-17T17:59:07.584Z,40.27
2023-09-17T18:02:07.115Z,40.37
2023-09-17T18:04:07.547Z,40.47
2023-09-17T18:07:07.786Z,40.69
2023-09-17T18:10:07.094Z,40.82
2023-09-17T18:12:07.315Z,41.13
2023-09-17T18:15:06.875Z,41.25
2023-09-17T18:17:07.116Z,41.47
2023-09-17T18:20:07.434Z,41.76
2023-09-17T18:23:07.131Z,42.02
2023-09-17T18:26:06.887Z,42.09
2023-09-17T18:28:06.875Z,42.41
2023-09-17T18:30:06.857Z,42.58
2023-09-17T18:33:07.269Z,42.67
2023-09-17T18:36:06.844Z,42.67
2023-09-17T18:39:06.855Z,42.83
2023-09-17T18:41:07.825Z,43.08
2023-09-17T18:44:06.704Z,43.01
2023-09-17T18:46:06.887Z,43.06
2023-09-17T18:49:06.880Z,43.24
2023-09-17T18:51:07.046Z,43.38
2023-09-17T18:53:07.613Z,43.56
2023-09-17T18:56:07.268Z,43.72
2023-09-17T18:58:06.899Z,43.9
2023-09-17T19:01:07.010Z,43.95
2023-09-17T19:03:07.162Z,43.84
2023-09-17T19:06:06.974Z,43.99
2023-09-17T19:08:07.116Z,43.94
2023-09-17T19:10:07.424Z,44.12
2023-09-17T19:13:06.870Z,44.45
2023-09-17T19:15:06.888Z,44.8
2023-09-17T19:17:06.976Z,44.97
2023-09-17T19:19:07.803Z,45.04
2023-09-17T19:22:06.976Z,44.81
2023-09-17T19:25:06.916Z,45.05
2023-09-17T19:27:07.673Z,44.95
2023-09-17T19:30:06.890Z,45.42
2023-09-17T19:33:06.903Z,45.49
2023-09-17T19:35:06.883Z,45.54
2023-09-17T19:38:06.930Z,45.79
2023-09-17T19:41:07.444Z,45.56
2023-09-17T19:43:07.862Z,45.78
2023-09-17T19:46:07.735Z,45.57
2023-09-17T19:49:06.991Z,45.79
2023-09-17T19:52:07.543Z,46.32
2023-09-17T19:55:07.341Z,46.02
2023-09-17T19:57:07.529Z,46.08
2023-09-17T20:00:07.262Z,46.24
2023-09-17T20:05:06.949Z,46.37
2023-09-17T20:07:07.681Z,46.4
2023-09-17T20:10:06.881Z,46.79
2023-09-17T20:12:06.968Z,46.99
2023-09-17T20:15:06.907Z,47.48
2023-09-17T20:17:06.971Z,46.86
2023-09-17T20:20:06.940Z,46.64
2023-09-17T20:22:07.701Z,46.73
2023-09-17T20:25:07.073Z,46.64
2023-09-17T20:28:06.940Z,46.33
2023-09-17T20:30:07.820Z,46.15
2023-09-17T20:33:07.072Z,46.56
2023-09-17T20:36:07.004Z,46.48
2023-09-17T20:38:07.366Z,46.32
2023-09-17T20:40:08.038Z,46.68
2023-09-17T20:43:07.099Z,46.85
2023-09-17T20:46:06.925Z,46.96
2023-09-17T20:48:07.565Z,47.04
2023-09-17T20:51:07.727Z,47.16
2023-09-17T20:54:07.269Z,47.15
2023-09-17T20:57:07.403Z,47.43
2023-09-17T21:00:06.942Z,47.56
2023-09-17T21:02:07.016Z,47.52
2023-09-17T21:04:08.066Z,47.34
2023-09-17T21:06:07.477Z,47.73
2023-09-17T21:09:06.909Z,47.89
2023-09-17T21:11:06.954Z,47.93
2023-09-17T21:14:07.370Z,47.81
2023-09-17T21:17:07.519Z,47.83
2023-09-17T21:19:07.503Z,47.72
2023-09-17T21:22:08.499Z,47.37
2023-09-17T21:25:06.978Z,47.74
2023-09-17T21:27:07.371Z,47.62
2023-09-17T21:30:07.004Z,47.74
2023-09-17T21:33:07.641Z,47.96
2023-09-17T21:36:07.345Z,48.06
2023-09-17T21:39:08.614Z,48.09
2023-09-17T21:41:07.860Z,48.44
2023-09-17T21:44:07.336Z,47.87
2023-09-17T21:47:07.284Z,47.96
2023-09-17T21:50:07.003Z,48.25
2023-09-17T21:53:07.798Z,48.24
2023-09-17T21:56:07.006Z,48.42
2023-09-17T21:58:06.937Z,48.39
2023-09-17T22:00:07.520Z,48.54
2023-09-17T22:03:07.373Z,48.53
2023-09-17T22:05:07.792Z,48.61
2023-09-17T22:08:06.969Z,48.29
2023-09-17T22:10:06.938Z,48.61
2023-09-17T22:12:06.996Z,48.66
2023-09-17T22:14:06.970Z,48.93
2023-09-17T22:17:06.960Z,48.73
2023-09-17T22:19:06.944Z,48.62
2023-09-17T22:22:07.801Z,49.12
2023-09-17T22:25:06.919Z,49.31
2023-09-17T22:27:07.509Z,49.41
2023-09-17T22:30:07.062Z,49.7
2023-09-17T22:33:07.201Z,48.82
2023-09-17T22:35:07.484Z,48.95
2023-09-17T22:37:07.639Z,48.75
2023-09-17T22:40:06.952Z,49.19
2023-09-17T22:42:06.937Z,49.27
2023-09-17T22:44:16.662Z,49.14
2023-09-17T22:46:06.980Z,49.32
2023-09-17T22:48:07.419Z,49.27
2023-09-17T22:51:06.977Z,49.33
2023-09-17T22:53:06.962Z,49.48
2023-09-17T22:55:07.001Z,49.61
2023-09-17T22:57:07.109Z,49.4
2023-09-17T22:59:07.582Z,49.61
2023-09-17T23:02:08.697Z,49.91
2023-09-17T23:05:07.004Z,49.85
2023-09-17T23:07:07.324Z,49.82
2023-09-17T23:10:07.712Z,49.94
2023-09-17T23:13:07.028Z,49.62
2023-09-17T23:16:07.152Z,49.52
2023-09-17T23:19:06.981Z,49.88
2023-09-17T23:21:07.046Z,49.79
2023-09-17T23:24:06.993Z,49.9
2023-09-17T23:27:06.957Z,49.71
2023-09-17T23:29:07.618Z,49.47
2023-09-17T23:32:07.034Z,49.35
2023-09-17T23:34:07.707Z,49.31
2023-09-17T23:37:07.873Z,49.54
2023-09-17T23:40:06.993Z,49.65
2023-09-17T23:42:07.206Z,49.6
2023-09-17T23:44:12.233Z,49.81
2023-09-17T23:46:07.227Z,49.15
2023-09-17T23:49:07.697Z,49.69
2023-09-17T23:52:06.974Z,49.95
2023-09-17T23:55:07.827Z,50.14
2023-09-17T23:58:06.950Z,50.03
